Time;durP1;ratioP1;P1;durP2;ratioP2;P2;SDS_P1;SDS_P2;PMS_P1;PMS_P2;Temp;Humidity;BMP_temperature;BMP_pressure;BME280_temperature;BME280_humidity;BME280_pressure;Samples;Min_cycle;Max_cycle;Signal;HPM_P1;HPM_P2
2021/01/01 00:03:37;;;;;;;5.20;4.63;;;;;;;;;;10166066;29;20056;-68
2021/01/01 00:08:39;;;;;;;3.70;3.50;;;;;;;;;;10166417;29;20098;-68
2021/01/01 00:13:40;;;;;;;3.60;3.30;;;;;;;;;;10166957;29;20442;-68
2021/01/01 00:18:44;;;;;;;1.83;1.73;;;;;;;;;;10167195;29;20135;-68
2021/01/01 00:23:45;;;;;;;;;;;;;;;;;;10165413;29;20054;-68
2021/01/01 00:28:47;;;;;;;7.40;4.80;;;;;;;;;;10166290;29;19934;-67
2021/01/01 00:33:50;;;;;;;40.47;3.30;;;;;;;;;;10165114;29;20501;-67
2021/01/01 00:38:53;;;;;;;4.05;2.88;;;;;;;;;;10165713;29;20076;-68
2021/01/01 00:43:55;;;;;;;0.68;0.68;;;;;;;;;;10165567;29;20058;-67
2021/01/01 00:48:59;;;;;;;2.87;2.67;;;;;;;;;;10165414;29;20519;-67
2021/01/01 00:54:01;;;;;;;0.80;0.80;;;;;;;;;;10164394;29;20070;-67
2021/01/01 00:59:03;;;;;;;3.37;3.17;;;;;;;;;;10174228;29;20064;-68
2021/01/01 01:04:05;;;;;;;0.80;0.80;;;;;;;;;;10170625;29;20246;-68
2021/01/01 01:09:07;;;;;;;0.97;0.97;;;;;;;;;;10172112;29;20040;-67
2021/01/01 01:14:09;;;;;;;1.57;1.47;;;;;;;;;;10172244;29;20052;-67
2021/01/01 01:19:11;;;;;;;1.73;1.63;;;;;;;;;;10173560;29;20058;-68
2021/01/01 01:24:13;;;;;;;0.93;0.93;;;;;;;;;;10170602;29;20062;-67
2021/01/01 01:29:15;;;;;;;1.40;1.33;;;;;;;;;;10173042;29;20563;-68
2021/01/01 01:34:17;;;;;;;0.30;0.30;;;;;;;;;;10169224;29;20052;-67
2021/01/01 01:39:19;;;;;;;0.63;0.63;;;;;;;;;;10172204;29;20163;-68
2021/01/01 01:44:21;;;;;;;0.50;0.50;;;;;;;;;;10171266;29;20052;-67
2021/01/01 01:49:24;;;;;;;2.07;1.97;;;;;;;;;;10170638;29;20134;-67
2021/01/01 01:54:28;;;;;;;0.40;0.40;;;;;;;;;;10170074;29;20052;-68
2021/01/01 01:59:30;;;;;;;0.60;0.60;;;;;;;;;;10171508;29;20076;-68
2021/01/01 02:04:33;;;;;;;1.17;1.17;;;;;;;;;;10165127;29;21380;-68
2021/01/01 02:09:34;;;;;;;0.75;0.75;;;;;;;;;;10169203;29;20174;-68
2021/01/01 02:14:36;;;;;;;0.70;0.70;;;;;;;;;;10168426;29;20396;-68
2021/01/01 02:19:39;;;;;;;0.40;0.40;;;;;;;;;;10169842;29;20056;-68
2021/01/01 02:24:41;;;;;;;1.90;1.80;;;;;;;;;;10170827;29;20054;-68
2021/01/01 02:29:43;;;;;;;1.20;1.20;;;;;;;;;;10169431;29;20130;-68
2021/01/01 02:34:44;;;;;;;1.67;1.57;;;;;;;;;;10171183;29;20055;-68
2021/01/01 02:39:47;;;;;;;0.40;0.40;;;;;;;;;;10167722;29;20056;-67
2021/01/01 02:44:49;;;;;;;0.40;0.40;;;;;;;;;;10171050;29;20051;-67
2021/01/01 02:49:50;;;;;;;1.03;0.87;;;;;;;;;;10167026;29;20074;-67
2021/01/01 02:54:53;;;;;;;1.13;1.00;;;;;;;;;;10165705;29;20088;-67
2021/01/01 02:59:55;;;;;;;0.37;0.37;;;;;;;;;;10168711;29;20132;-67
2021/01/01 03:04:56;;;;;;;1.67;1.53;;;;;;;;;;10168410;29;20531;-67
2021/01/01 03:09:59;;;;;;;0.30;0.30;;;;;;;;;;10167906;29;20048;-67
2021/01/01 03:15:01;;;;;;;0.40;0.40;;;;;;;;;;10167991;29;20063;-67
2021/01/01 03:20:03;;;;;;;0.40;0.40;;;;;;;;;;10165357;29;20456;-67
2021/01/01 03:25:07;;;;;;;0.40;0.40;;;;;;;;;;10170276;29;20543;-67
2021/01/01 03:30:10;;;;;;;0.30;0.30;;;;;;;;;;10166204;29;20135;-67
2021/01/01 03:35:12;;;;;;;0.40;0.40;;;;;;;;;;10169498;29;20094;-67
2021/01/01 03:40:15;;;;;;;1.42;1.33;;;;;;;;;;10166275;29;20044;-67
2021/01/01 03:45:16;;;;;;;0.25;0.25;;;;;;;;;;10166435;29;20127;-67
2021/01/01 03:50:18;;;;;;;0.73;0.73;;;;;;;;;;10165259;29;20068;-67
2021/01/01 03:55:21;;;;;;;0.63;0.63;;;;;;;;;;10167541;29;20087;-67
2021/01/01 04:00:23;;;;;;;1.15;1.05;;;;;;;;;;10167117;29;20143;-68
2021/01/01 04:05:25;;;;;;;0.50;0.50;;;;;;;;;;10164733;29;20063;-67
2021/01/01 04:10:27;;;;;;;0.30;0.30;;;;;;;;;;10165932;29;20124;-67
2021/01/01 04:15:29;;;;;;;0.47;0.47;;;;;;;;;;10167227;29;20048;-66
2021/01/01 04:20:31;;;;;;;0.30;0.30;;;;;;;;;;10165880;29;20139;-66
2021/01/01 04:25:34;;;;;;;0.57;0.57;;;;;;;;;;10165450;29;20055;-67
2021/01/01 04:30:36;;;;;;;0.40;0.40;;;;;;;;;;10169442;29;20460;-66
2021/01/01 04:35:37;;;;;;;1.60;1.50;;;;;;;;;;10174153;29;20056;-66
2021/01/01 04:40:40;;;;;;;0.40;0.40;;;;;;;;;;10172679;29;20052;-66
2021/01/01 04:45:43;;;;;;;0.47;0.47;;;;;;;;;;10172898;29;20048;-66
2021/01/01 04:50:45;;;;;;;0.38;0.38;;;;;;;;;;10171984;29;20087;-65
2021/01/01 04:55:48;;;;;;;1.07;1.07;;;;;;;;;;10173244;29;20044;-66
2021/01/01 05:00:50;;;;;;;0.30;0.30;;;;;;;;;;10175271;29;20131;-66
2021/01/01 05:05:52;;;;;;;0.20;0.20;;;;;;;;;;10171897;29;20560;-66
2021/01/01 05:10:55;;;;;;;0.22;0.22;;;;;;;;;;10173905;29;20052;-66
2021/01/01 05:15:56;;;;;;;0.30;0.30;;;;;;;;;;10171642;29;20044;-66
2021/01/01 05:20:59;;;;;;;0.30;0.30;;;;;;;;;;10173779;29;20123;-66
2021/01/01 05:26:12;;;;;;;2.33;1.00;;;;;;;;;;10170764;29;20445;-66
2021/01/01 05:31:13;;;;;;;0.30;0.30;;;;;;;;;;10172658;29;20064;-66
2021/01/01 05:36:15;;;;;;;0.30;0.30;;;;;;;;;;10171964;29;20052;-67
2021/01/01 05:41:28;;;;;;;0.20;0.20;;;;;;;;;;10170203;29;20404;-66
2021/01/01 05:46:30;;;;;;;0.32;0.32;;;;;;;;;;10172329;29;20151;-66
2021/01/01 05:51:32;;;;;;;0.30;0.30;;;;;;;;;;10170864;29;20056;-66
2021/01/01 05:56:35;;;;;;;0.30;0.30;;;;;;;;;;10170150;29;21008;-66
2021/01/01 06:01:37;;;;;;;5.38;1.48;;;;;;;;;;10168799;29;20048;-66
2021/01/01 06:06:38;;;;;;;0.30;0.30;;;;;;;;;;10170911;29;20139;-66
2021/01/01 06:11:50;;;;;;;0.20;0.20;;;;;;;;;;10169873;29;20436;-66
2021/01/01 06:17:01;;;;;;;0.30;0.30;;;;;;;;;;10172021;29;20472;-66
2021/01/01 06:22:05;;;;;;;0.30;0.30;;;;;;;;;;10168749;29;20049;-66
2021/01/01 06:27:08;;;;;;;0.20;0.20;;;;;;;;;;10170424;29;20044;-66
2021/01/01 06:32:10;;;;;;;0.30;0.30;;;;;;;;;;10168454;29;20063;-67
2021/01/01 06:37:34;;;;;;;0.70;0.68;;;;;;;;;;10169700;29;20081;-66
2021/01/01 06:42:53;;;;;;;0.60;0.60;;;;;;;;;;10169488;29;20058;-66
2021/01/01 06:47:55;;;;;;;0.20;0.20;;;;;;;;;;10168939;29;20044;-66
2021/01/01 06:53:05;;;;;;;0.30;0.30;;;;;;;;;;10169228;29;20048;-66
2021/01/01 06:58:07;;;;;;;0.20;0.20;;;;;;;;;;10169621;29;20126;-66
2021/01/01 07:03:24;;;;;;;0.40;0.40;;;;;;;;;;10168935;29;20047;-66
2021/01/01 07:08:44;;;;;;;0.32;0.32;;;;;;;;;;10168326;29;20055;-67
2021/01/01 07:13:47;;;;;;;0.30;0.30;;;;;;;;;;10166627;29;20435;-66
2021/01/01 07:18:49;;;;;;;0.35;0.35;;;;;;;;;;10167619;29;20075;-66
2021/01/01 07:23:51;;;;;;;0.22;0.22;;;;;;;;;;10167382;29;20445;-66
2021/01/01 07:28:54;;;;;;;0.25;0.25;;;;;;;;;;10167735;29;20518;-69
2021/01/01 07:33:56;;;;;;;0.23;0.23;;;;;;;;;;10167360;29;20075;-67
2021/01/01 07:39:02;;;;;;;0.30;0.30;;;;;;;;;;10164964;29;20047;-67
2021/01/01 07:44:05;;;;;;;0.20;0.20;;;;;;;;;;10163961;29;20062;-67
2021/01/01 07:49:07;;;;;;;0.90;0.88;;;;;;;;;;10166529;29;20424;-67
2021/01/01 07:54:09;;;;;;;0.20;0.20;;;;;;;;;;10166586;29;20048;-67
2021/01/01 07:59:12;;;;;;;0.30;0.30;;;;;;;;;;10167462;29;20130;-67
2021/01/01 08:04:14;;;;;;;0.30;0.30;;;;;;;;;;10166891;29;20048;-67
2021/01/01 08:09:16;;;;;;;0.30;0.30;;;;;;;;;;10165201;29;20055;-67
2021/01/01 08:14:22;;;;;;;0.22;0.22;;;;;;;;;;10166260;29;20058;-67
2021/01/01 08:19:23;;;;;;;0.40;0.40;;;;;;;;;;10163822;29;20052;-67
2021/01/01 08:24:26;;;;;;;0.20;0.20;;;;;;;;;;10166964;29;20056;-67
2021/01/01 08:29:29;;;;;;;0.30;0.30;;;;;;;;;;10167693;29;20052;-66
2021/01/01 08:34:32;;;;;;;18.43;2.00;;;;;;;;;;10167631;29;20084;-67
2021/01/01 08:39:33;;;;;;;0.33;0.33;;;;;;;;;;10167371;29;20144;-66
2021/01/01 08:44:36;;;;;;;0.82;0.82;;;;;;;;;;10166781;29;20140;-66
2021/01/01 08:49:37;;;;;;;0.20;0.20;;;;;;;;;;10167324;29;20044;-67
2021/01/01 08:54:39;;;;;;;0.30;0.30;;;;;;;;;;10166010;29;20066;-67
2021/01/01 08:59:58;;;;;;;0.20;0.20;;;;;;;;;;10166164;29;20055;-67
2021/01/01 09:05:00;;;;;;;0.20;0.20;;;;;;;;;;10168026;29;20059;-67
2021/01/01 09:10:18;;;;;;;0.20;0.20;;;;;;;;;;10163483;29;20790;-66
2021/01/01 09:15:28;;;;;;;0.20;0.20;;;;;;;;;;10166849;29;20134;-67
2021/01/01 09:20:30;;;;;;;0.17;0.17;;;;;;;;;;10175333;29;20135;-67
2021/01/01 09:25:32;;;;;;;0.20;0.20;;;;;;;;;;10172393;29;20058;-67
2021/01/01 09:30:36;;;;;;;0.32;0.32;;;;;;;;;;10171830;29;20246;-67
2021/01/01 09:35:37;;;;;;;0.40;0.40;;;;;;;;;;10169998;29;20111;-67
2021/01/01 09:40:39;;;;;;;0.20;0.20;;;;;;;;;;10171293;29;20155;-67
2021/01/01 09:45:42;;;;;;;0.25;0.25;;;;;;;;;;10170798;29;20068;-67
2021/01/01 09:50:43;;;;;;;0.55;0.55;;;;;;;;;;10173424;29;20115;-67
2021/01/01 09:55:45;;;;;;;0.25;0.25;;;;;;;;;;10170457;29;20477;-67
2021/01/01 10:00:48;;;;;;;0.20;0.20;;;;;;;;;;10173559;29;20052;-68
2021/01/01 10:05:49;;;;;;;0.40;0.40;;;;;;;;;;10168428;29;20098;-67
2021/01/01 10:10:52;;;;;;;0.20;0.20;;;;;;;;;;10169002;29;20068;-67
2021/01/01 10:15:55;;;;;;;0.28;0.28;;;;;;;;;;10170087;29;20055;-67
2021/01/01 10:20:57;;;;;;;0.85;0.85;;;;;;;;;;10169921;29;20055;-68
2021/01/01 10:25:59;;;;;;;0.20;0.20;;;;;;;;;;10168839;29;20048;-67
2021/01/01 10:31:02;;;;;;;4.55;1.13;;;;;;;;;;10169033;29;20156;-67
2021/01/01 10:36:04;;;;;;;0.30;0.30;;;;;;;;;;10169909;29;20381;-67
2021/01/01 10:41:05;;;;;;;0.43;0.43;;;;;;;;;;10166807;29;20557;-67
2021/01/01 10:46:08;;;;;;;0.40;0.40;;;;;;;;;;10168501;29;20589;-67
2021/01/01 10:51:10;;;;;;;0.10;0.10;;;;;;;;;;10169461;29;21889;-67
2021/01/01 10:56:11;;;;;;;0.68;0.68;;;;;;;;;;10168148;29;20453;-67
2021/01/01 11:01:17;;;;;;;3.30;1.02;;;;;;;;;;10166717;29;20052;-67
2021/01/01 11:06:19;;;;;;;0.20;0.20;;;;;;;;;;10167130;29;20159;-68
2021/01/01 11:11:22;;;;;;;0.10;0.10;;;;;;;;;;10168460;29;20544;-68
2021/01/01 12:25:57;;;;;;;0.20;0.20;;;;;;;;;;10153673;29;20493;-70
2021/01/01 12:31:00;;;;;;;0.20;0.20;;;;;;;;;;10166259;29;20099;-68
2021/01/01 12:36:02;;;;;;;0.30;0.30;;;;;;;;;;10166712;29;20516;-68
2021/01/01 12:41:04;;;;;;;0.20;0.20;;;;;;;;;;10165490;29;20072;-68
2021/01/01 12:46:06;;;;;;;0.20;0.20;;;;;;;;;;10163948;29;20205;-68
2021/01/01 12:51:08;;;;;;;0.20;0.20;;;;;;;;;;10168371;29;20079;-68
2021/01/01 12:56:10;;;;;;;0.10;0.10;;;;;;;;;;10172436;29;20099;-67
2021/01/01 13:01:12;;;;;;;0.10;0.10;;;;;;;;;;10173684;29;20138;-68
2021/01/01 13:06:17;;;;;;;0.10;0.10;;;;;;;;;;10173702;29;20048;-67
2021/01/01 13:11:19;;;;;;;0.20;0.20;;;;;;;;;;10171942;29;20143;-68
2021/01/01 13:16:22;;;;;;;0.10;0.10;;;;;;;;;;10171803;29;20048;-68
2021/01/01 13:21:28;;;;;;;0.57;0.57;;;;;;;;;;10173018;29;20063;-67
2021/01/01 13:26:30;;;;;;;0.20;0.20;;;;;;;;;;10170086;29;20052;-69
2021/01/01 13:31:35;;;;;;;0.25;0.25;;;;;;;;;;10173313;29;20139;-69
2021/01/01 13:36:37;;;;;;;0.30;0.30;;;;;;;;;;10172815;29;20564;-69
2021/01/01 13:41:40;;;;;;;0.53;0.53;;;;;;;;;;10171327;29;20465;-69
2021/01/01 13:46:41;;;;;;;4.65;1.02;;;;;;;;;;10169213;29;20572;-69
2021/01/01 13:51:44;;;;;;;0.20;0.20;;;;;;;;;;10172671;29;20084;-69
2021/01/01 13:56:45;;;;;;;0.10;0.10;;;;;;;;;;10169299;29;20055;-69
2021/01/01 14:01:47;;;;;;;1.30;1.20;;;;;;;;;;10166997;29;21489;-69
2021/01/01 14:06:50;;;;;;;0.20;0.20;;;;;;;;;;10159344;29;20452;-69
2021/01/01 14:11:52;;;;;;;0.20;0.20;;;;;;;;;;10159253;29;20044;-69
2021/01/01 14:16:54;;;;;;;1.65;1.55;;;;;;;;;;10167862;29;20075;-68
2021/01/01 14:21:57;;;;;;;0.20;0.20;;;;;;;;;;10163263;29;20147;-66
2021/01/01 14:26:58;;;;;;;0.23;0.23;;;;;;;;;;10164974;29;20502;-65
2021/01/01 14:32:00;;;;;;;0.13;0.13;;;;;;;;;;10163861;29;20083;-65
2021/01/01 14:37:04;;;;;;;0.30;0.30;;;;;;;;;;10166466;29;20130;-65
2021/01/01 14:42:06;;;;;;;2.45;1.27;;;;;;;;;;10170340;29;20047;-66
2021/01/01 14:47:07;;;;;;;0.20;0.20;;;;;;;;;;10162807;29;20067;-69
2021/01/01 14:52:10;;;;;;;0.20;0.20;;;;;;;;;;10169208;29;20139;-67
2021/01/01 14:57:12;;;;;;;0.20;0.20;;;;;;;;;;10166743;29;20083;-65
2021/01/01 15:02:13;;;;;;;0.20;0.20;;;;;;;;;;10165659;29;20107;-67
2021/01/01 15:07:16;;;;;;;0.20;0.20;;;;;;;;;;10167512;29;20044;-68
2021/01/01 15:12:18;;;;;;;0.20;0.20;;;;;;;;;;10165231;29;20062;-67
2021/01/01 15:17:20;;;;;;;0.20;0.20;;;;;;;;;;10164067;29;20139;-70
2021/01/01 15:22:24;;;;;;;0.30;0.30;;;;;;;;;;10161871;28;20593;-67
2021/01/01 15:27:25;;;;;;;1.23;1.20;;;;;;;;;;10167052;29;20088;-65
2021/01/01 15:32:27;;;;;;;0.20;0.20;;;;;;;;;;10165285;29;20096;-69
2021/01/01 15:37:29;;;;;;;0.30;0.30;;;;;;;;;;10165449;29;20074;-63
2021/01/01 15:42:31;;;;;;;0.20;0.20;;;;;;;;;;10164272;29;20098;-64
2021/01/01 15:47:33;;;;;;;0.20;0.20;;;;;;;;;;10164977;29;20052;-65
2021/01/01 15:52:36;;;;;;;0.20;0.20;;;;;;;;;;10164459;29;20052;-67
2021/01/01 15:57:37;;;;;;;0.10;0.10;;;;;;;;;;10164307;29;20185;-66
2021/01/01 16:02:39;;;;;;;0.10;0.10;;;;;;;;;;10161523;29;20139;-65
2021/01/01 16:07:42;;;;;;;0.30;0.30;;;;;;;;;;10165319;29;20047;-67
2021/01/01 16:12:43;;;;;;;0.20;0.20;;;;;;;;;;10164842;29;20056;-65
2021/01/01 16:17:45;;;;;;;1.20;1.20;;;;;;;;;;10161093;29;20438;-68
2021/01/01 16:22:48;;;;;;;0.85;0.85;;;;;;;;;;10164125;29;20079;-68
2021/01/01 16:27:50;;;;;;;0.20;0.20;;;;;;;;;;10159165;29;20102;-68
2021/01/01 16:32:51;;;;;;;0.43;0.43;;;;;;;;;;10161475;29;20147;-69
2021/01/01 16:37:54;;;;;;;0.20;0.20;;;;;;;;;;10159755;29;20044;-67
2021/01/01 16:42:56;;;;;;;0.30;0.30;;;;;;;;;;10156459;29;20134;-67
2021/01/01 16:47:58;;;;;;;0.40;0.40;;;;;;;;;;10159133;29;20489;-70
2021/01/01 16:53:01;;;;;;;0.82;0.82;;;;;;;;;;10162008;29;20134;-69
2021/01/01 16:58:02;;;;;;;0.17;0.17;;;;;;;;;;10163629;29;20485;-68
2021/01/01 17:03:04;;;;;;;0.30;0.30;;;;;;;;;;10162749;29;20527;-69
2021/01/01 17:08:07;;;;;;;0.20;0.20;;;;;;;;;;10160932;29;20067;-69
2021/01/01 17:13:09;;;;;;;0.30;0.30;;;;;;;;;;10160964;29;20493;-69
2021/01/01 17:18:11;;;;;;;0.60;0.60;;;;;;;;;;10162803;29;20484;-67
2021/01/01 17:23:14;;;;;;;0.20;0.20;;;;;;;;;;10161910;29;20059;-69
2021/01/01 17:28:16;;;;;;;0.40;0.40;;;;;;;;;;10162141;29;20155;-71
2021/01/01 17:33:17;;;;;;;0.20;0.20;;;;;;;;;;10158774;29;20095;-69
2021/01/01 17:38:20;;;;;;;0.30;0.30;;;;;;;;;;10164907;29;20524;-68
2021/01/01 17:43:21;;;;;;;0.20;0.20;;;;;;;;;;10166120;29;20221;-68
2021/01/01 17:48:23;;;;;;;0.65;0.65;;;;;;;;;;10167230;29;20048;-65
2021/01/01 17:53:26;;;;;;;0.30;0.30;;;;;;;;;;10168017;29;20060;-65
2021/01/01 17:58:27;;;;;;;0.23;0.23;;;;;;;;;;10168703;29;20052;-63
2021/01/01 18:03:29;;;;;;;0.20;0.20;;;;;;;;;;10170722;29;20163;-65
2021/01/01 18:08:33;;;;;;;0.20;0.20;;;;;;;;;;10166780;29;20087;-66
2021/01/01 18:13:34;;;;;;;;;;;;;;;;;;10169274;29;20107;-63
2021/01/01 18:18:36;;;;;;;0.20;0.20;;;;;;;;;;10167572;29;20013;-67
2021/01/01 18:23:39;;;;;;;0.30;0.30;;;;;;;;;;10168463;29;20063;-64
2021/01/01 18:28:41;;;;;;;0.20;0.20;;;;;;;;;;10165954;29;20131;-63
2021/01/01 18:33:45;;;;;;;0.10;0.10;;;;;;;;;;10163882;29;20682;-64
2021/01/01 18:39:00;;;;;;;0.28;0.28;;;;;;;;;;10166090;29;20485;-65
2021/01/01 18:44:06;;;;;;;0.20;0.20;;;;;;;;;;10168620;29;20040;-64
2021/01/01 18:49:08;;;;;;;0.10;0.10;;;;;;;;;;10166024;29;20079;-64
2021/01/01 18:54:12;;;;;;;0.30;0.30;;;;;;;;;;10165948;29;20056;-65
2021/01/01 18:59:30;;;;;;;0.10;0.10;;;;;;;;;;10166565;29;20514;-65
2021/01/01 19:04:43;;;;;;;0.20;0.20;;;;;;;;;;10164089;29;20044;-64
2021/01/01 19:09:50;;;;;;;0.28;0.28;;;;;;;;;;10164826;29;20091;-64
2021/01/01 19:14:53;;;;;;;0.20;0.20;;;;;;;;;;10164065;29;20063;-68
2021/01/01 19:19:58;;;;;;;0.23;0.23;;;;;;;;;;10166124;29;20501;-68
2021/01/01 19:25:04;;;;;;;0.20;0.20;;;;;;;;;;10163711;29;20596;-67
2021/01/01 19:30:08;;;;;;;0.20;0.20;;;;;;;;;;10162734;29;20130;-67
2021/01/01 19:35:13;;;;;;;0.30;0.30;;;;;;;;;;10162167;29;20100;-65
2021/01/01 19:40:36;;;;;;;0.20;0.20;;;;;;;;;;10163336;29;20067;-65
2021/01/01 19:45:49;;;;;;;0.22;0.22;;;;;;;;;;10161887;29;20087;-64
2021/01/01 19:51:13;;;;;;;7.38;4.38;;;5.60;99.90;;;;;;10142199;29;20528;-69
2021/01/01 19:56:15;;;;;;;10.10;4.00;;;;;;;;;;10162619;29;20055;-73
2021/01/01 20:01:23;;;;;;;8.65;3.50;;;5.40;99.90;;;;;;10152183;29;20083;-77
2021/01/01 20:06:25;;;;;;;13.40;5.20;;;5.30;99.90;;;;;;10159633;29;20872;-71
2021/01/01 20:11:31;;;;;;;10.35;3.90;;;5.40;99.90;;;;;;10161246;29;20044;-75
2021/01/01 20:16:42;;;;;;;7.00;3.85;;;5.30;99.90;;;;;;10160041;29;20048;-72
2021/01/01 20:21:50;;;;;;;13.48;5.75;;;5.10;99.90;;;;;;10160980;29;20421;-70
2021/01/01 20:26:52;;;;;;;9.90;4.32;;;5.00;99.90;;;;;;10161256;29;20212;-73
2021/01/01 20:31:54;;;;;;;12.65;4.72;;;;;;;;;;10157536;29;20051;-73
2021/01/01 20:36:57;;;;;;;9.45;4.88;;;;;;;;;;10164053;29;20072;-73
2021/01/01 20:42:33;;;;;;;9.52;4.40;;;4.60;99.90;;;;;;10161201;29;20149;-73
2021/01/01 20:58:30;;;;;;;13.75;4.88;;;4.20;99.90;;;;;;10160999;29;20404;-73
2021/01/01 21:03:32;;;;;;;11.70;3.75;;;4.00;99.90;;;;;;10160001;29;20591;-74
2021/01/01 21:09:19;;;;;;;12.82;3.97;;;3.90;99.90;;;;;;10160450;29;20052;-74
2021/01/01 21:14:54;;;;;;;11.75;4.65;;;4.10;99.90;;;;;;10128889;29;20107;-73
2021/01/01 21:20:15;;;;;;;21.08;4.53;;;4.30;99.90;;;;;;10164794;29;20052;-73
2021/01/01 21:25:50;;;;;;;22.10;6.10;;;4.50;99.90;;;;;;10162937;29;20055;-74
2021/01/01 21:31:33;;;;;;;34.88;10.30;;;4.60;99.90;;;;;;10140620;29;20056;-81
2021/01/01 21:37:09;;;;;;;32.08;7.45;;;4.80;99.90;;;;;;10159081;29;20060;-79
2021/01/01 21:42:30;;;;;;;13.02;4.53;;;4.90;99.90;;;;;;10152101;29;20044;-81
2021/01/01 21:48:02;;;;;;;17.15;5.90;;;4.90;99.90;;;;;;10165756;29;20044;-78
2021/01/01 21:53:07;;;;;;;15.52;5.60;;;4.50;99.90;;;;;;10159725;29;20083;-79
2021/01/01 21:58:08;;;;;;;11.18;4.40;;;4.50;99.90;;;;;;10168078;29;20048;-80
2021/01/01 22:03:11;;;;;;;12.10;4.47;;;4.30;99.90;;;;;;10164967;29;20568;-81
2021/01/01 22:08:13;;;;;;;9.55;4.53;;;4.20;99.90;;;;;;10158068;29;20044;-79
2021/01/01 22:13:15;;;;;;;12.50;4.13;;;4.10;99.90;;;;;;10162981;29;20048;-76
2021/01/01 22:18:16;;;;;;;19.23;4.95;;;4.00;99.90;;;;;;10161854;29;20056;-78
2021/01/01 22:23:19;;;;;;;9.93;3.90;;;3.90;99.90;;;;;;10164686;29;20140;-79
2021/01/01 22:28:20;;;;;;;16.63;4.90;;;3.80;99.90;;;;;;10200339;29;20052;-80
2021/01/01 22:33:21;;;;;;;15.73;4.55;;;3.50;99.90;;;;;;10165902;29;20126;-81
2021/01/01 22:38:24;;;;;;;27.40;5.68;;;3.50;99.90;;;;;;10163212;29;20110;-74
2021/01/01 22:43:25;;;;;;;16.95;4.65;;;3.90;99.90;;;;;;10156710;29;20572;-78
2021/01/01 22:48:26;;;;;;;14.57;4.75;;;4.10;99.90;;;;;;10149478;29;20056;-80
2021/01/01 22:53:28;;;;;;;15.82;3.88;;;4.20;99.90;;;;;;10163046;29;20148;-74
2021/01/01 22:58:33;;;;;;;18.25;5.00;;;4.10;99.90;;;;;;10159421;29;20191;-76
2021/01/01 23:03:38;;;;;;;17.02;4.40;;;3.80;99.90;;;;;;10160141;29;20580;-77
2021/01/01 23:08:42;;;;;;;9.15;3.53;;;3.80;99.90;;;;;;10156948;29;20409;-78
2021/01/01 23:13:44;;;;;;;10.68;4.18;;;4.00;99.90;;;;;;10157958;29;20062;-77
2021/01/01 23:18:53;;;;;;;12.15;3.67;;;4.20;99.90;;;;;;10155858;29;20146;-78
2021/01/01 23:23:59;;;;;;;12.30;3.47;;;4.30;99.90;;;;;;10155590;29;20052;-78
2021/01/01 23:29:09;;;;;;;13.48;3.35;;;4.40;99.90;;;;;;10155079;29;20048;-79
2021/01/01 23:34:27;;;;;;;7.47;3.13;;;4.50;99.90;;;;;;10155164;29;20074;-76
2021/01/01 23:39:38;;;;;;;13.88;4.13;;;4.60;99.90;;;;;;10153417;29;20056;-79
2021/01/01 23:44:49;;;;;;;12.02;3.92;;;4.70;99.90;;;;;;10158271;29;20138;-78
2021/01/01 23:49:51;;;;;;;11.90;4.18;;;4.80;99.90;;;;;;10157234;29;20045;-77
2021/01/01 23:54:59;;;;;;;14.57;5.07;;;4.70;99.90;;;;;;10154089;29;20437;-81
